Tropical Cyclones
[Index]
Main Index Home Page Stock Weather Photos Extreme Storms Discussion Storm News and Storm Chasing Reports Tropical Cyclones / Hurricanes / Typhoons Weather Data and Links Wild Fires / Bushfires Weather Observation Techniques Weather Picture Catalogue Tornado Pictures and Reports Stock Video Footage and DVDs for sale
Season 2012-2013 Tropical Cyclone 201318 Track Map
Season 2012-2013 Summaries (Operational Data): [AU] [SIO] [SPAC] [SH]
<<- Previous TC | 2012-2013 Season | Next TC ->>

click for intensity scale information  Lat/long Grid: Show Hide

 Date Labels: Show Hide

Operational Tropical Cyclone Data : JTWC Advisories

Name: 201318
Number: 1318

19 Feb 2013 06:00 UTC to 04 Mar 2013 12:00 UTC

    date/time    lat    long     hPa   cat  kts
2013-02-19 06   12.5   102.8    1010         15          
2013-02-19 12   12.1   102.3    1010         15          
2013-02-19 18   12.7   102.4    1010         15          
2013-02-20 00   10.3   104.4    1010         15          
2013-02-20 06   11.4   105.3    1010         15          
2013-02-20 12   12.3   104.7    1010         15          
2013-02-20 18   13.3   103.4    1010         15          
2013-02-21 00   12.6   102.4    1010         15          
2013-02-21 06   13.2   101.9    1010         15          
2013-02-21 12   13.7   101.3    1010         15          
2013-02-21 12   13.7   101.3    1010         15          
2013-02-21 18   14.0   100.6    1010         15          
2013-02-22 00   12.7   102.3    1010         15          
2013-02-22 06   12.8   101.6    1010         15          
2013-02-22 12   12.9   101.0    1004         25          
2013-02-22 18   13.0   100.3    1000         30          
2013-02-23 00   12.8    99.5    1000         30          
2013-02-23 06   12.6    98.9    1000         30          
2013-02-23 12   12.2    98.4    1000         30          
2013-02-23 18   11.8    98.3    1000         30          
2013-02-24 00   11.7    98.1    1000         30          
2013-02-24 06   12.0    97.9    1000         30          
2013-02-24 12   12.4    97.8     996    1    35          
2013-02-24 18   13.0    98.0     993    1    40          
2013-02-25 00   13.5    98.3     993    1    40          
2013-02-25 06   14.1    98.5     993    1    40          
2013-02-25 12   14.4    98.5     993    1    40          
2013-02-25 18   14.5    98.3     993    1    40          
2013-02-26 00   14.7    98.0     996    1    35          
2013-02-26 06   15.1    97.9     996    1    35          
2013-02-26 12   15.3    98.0     996    1    35          
2013-02-26 18   15.4    98.2    1000         30          
2013-02-27 00   15.3    98.6    1000         30          
2013-02-27 06   15.6    98.4    1000         30          
2013-02-27 12   15.5    98.8    1000         30          
2013-02-27 18   15.2    99.2    1004         25          
2013-02-28 00   15.1    99.7    1004         25          
2013-02-28 06   14.6   100.4    1004         25          
2013-02-28 12   14.5   101.0    1004         25          
2013-02-28 18   14.4   101.4    1000         25          
2013-03-01 00   14.2   101.9    1000         25          
2013-03-01 06   14.0   102.4    1003         25          
2013-03-01 12   14.0   102.9    1003         25          
2013-03-01 18   14.0   103.7    1004         25          
2013-03-02 00   14.1   105.0    1004         25          
2013-03-02 06   14.4   105.3    1004         25          
2013-03-02 12   14.5   105.6    1004         25          
2013-03-02 18   14.6   106.1    1004         25          
2013-03-03 00   14.8   106.7    1004         25          
2013-03-03 06   14.9   107.5    1004         25          
2013-03-03 12   14.9   108.5    1004         25          
2013-03-03 18   14.9   109.6    1004         25          
2013-03-04 00   14.9   110.7    1004         25          
2013-03-04 06   14.9   111.8    1004         25          
2013-03-04 12   14.7   113.2    1004         25          
Winds are 10-min average.

Tropical cyclone tracks developed by Michael Bath using operational warnings and advisories and Google Maps.


[Australian Severe Weather index] [Copyright Notice] [Email Contacts] [Search This Site] [Privacy Policy]
Document: tropical_cyclone_201318.htm Updated: 2 May 2017